createdAt,value
2022-11-13T00:01:21.636Z,7.53
2022-11-13T00:03:48.640Z,7.55
2022-11-13T00:06:17.026Z,7.47
2022-11-13T00:08:43.869Z,7.49
2022-11-13T00:11:15.023Z,7.53
2022-11-13T00:13:43.240Z,7.57
2022-11-13T00:16:20.918Z,7.61
2022-11-13T00:18:48.208Z,7.66
2022-11-13T00:21:21.008Z,7.70
2022-11-13T00:23:48.124Z,7.72
2022-11-13T00:26:20.552Z,7.70
2022-11-13T00:28:47.766Z,7.74
2022-11-13T00:31:16.240Z,7.76
2022-11-13T00:34:09.268Z,7.76
2022-11-13T00:36:29.858Z,7.78
2022-11-13T00:38:57.002Z,7.76
2022-11-13T00:41:24.627Z,7.85
2022-11-13T00:43:51.966Z,7.79
2022-11-13T00:46:19.337Z,7.81
2022-11-13T00:48:46.466Z,7.80
2022-11-13T00:51:13.045Z,7.79
2022-11-13T00:53:39.848Z,7.73
2022-11-13T00:56:06.913Z,7.79
2022-11-13T00:58:33.621Z,7.76
2022-11-13T01:01:11.615Z,7.89
2022-11-13T01:03:38.817Z,7.85
2022-11-13T01:06:13.361Z,7.94
2022-11-13T01:08:40.537Z,7.95
2022-11-13T01:11:21.732Z,8.01
2022-11-13T01:13:50.249Z,8.03
2022-11-13T01:16:19.583Z,7.96
2022-11-13T01:18:46.844Z,8.01
2022-11-13T01:21:22.934Z,7.97
2022-11-13T01:23:49.791Z,7.96
2022-11-13T01:26:21.039Z,7.85
2022-11-13T01:28:47.846Z,7.89
2022-11-13T01:31:17.419Z,7.90
2022-11-13T01:33:45.955Z,7.90
2022-11-13T01:36:24.310Z,7.77
2022-11-13T01:38:51.671Z,7.94
2022-11-13T01:41:25.873Z,7.97
2022-11-13T01:43:54.157Z,7.89
2022-11-13T01:46:26.541Z,7.93
2022-11-13T01:49:03.177Z,7.92
2022-11-13T01:51:35.201Z,8.03
2022-11-13T01:54:07.229Z,7.98
2022-11-13T01:56:34.192Z,7.98
2022-11-13T01:59:24.218Z,7.84
2022-11-13T02:01:50.908Z,8.01
2022-11-13T02:04:17.584Z,7.89
2022-11-13T02:06:49.685Z,7.93
2022-11-13T02:09:20.704Z,7.95
2022-11-13T02:11:47.657Z,7.96
2022-11-13T02:14:16.219Z,7.94
2022-11-13T02:16:47.007Z,7.92
2022-11-13T02:19:22.229Z,7.84
2022-11-13T02:22:20.952Z,7.91
2022-11-13T02:24:52.242Z,7.86
2022-11-13T02:27:33.083Z,7.82
2022-11-13T02:29:59.771Z,7.82
2022-11-13T02:32:26.358Z,7.85
2022-11-13T02:34:53.008Z,7.78
2022-11-13T02:37:19.592Z,7.76
2022-11-13T02:39:46.381Z,7.79
2022-11-13T02:42:13.162Z,7.80
2022-11-13T02:44:40.101Z,7.79
2022-11-13T02:47:06.697Z,7.65
2022-11-13T02:49:33.418Z,7.58
2022-11-13T02:52:00.100Z,7.67
2022-11-13T02:54:26.705Z,7.74
2022-11-13T02:56:53.334Z,7.81
2022-11-13T02:59:19.939Z,7.69
2022-11-13T03:01:47.501Z,7.70
2022-11-13T03:04:14.265Z,7.85
2022-11-13T03:06:41.082Z,7.87
2022-11-13T03:09:07.674Z,7.87
2022-11-13T03:11:34.315Z,7.84
2022-11-13T03:14:01.025Z,7.77
2022-11-13T03:16:27.616Z,7.80
2022-11-13T03:18:56.250Z,7.85
2022-11-13T03:21:23.191Z,7.83
2022-11-13T03:23:49.769Z,7.79
2022-11-13T03:26:17.601Z,7.87
2022-11-13T03:28:44.260Z,7.91
2022-11-13T03:31:10.861Z,7.87
2022-11-13T03:33:37.868Z,7.91
2022-11-13T03:36:05.438Z,7.99
2022-11-13T03:38:32.688Z,7.93
2022-11-13T03:40:59.457Z,8.02
2022-11-13T03:43:26.057Z,8.06
2022-11-13T03:45:52.654Z,7.99
2022-11-13T03:48:19.297Z,8.09
2022-11-13T03:50:48.717Z,8.18
2022-11-13T03:53:16.042Z,8.03
2022-11-13T03:55:43.615Z,8.26
2022-11-13T03:58:10.569Z,8.34
2022-11-13T04:00:38.891Z,8.34
2022-11-13T04:03:05.436Z,8.30
2022-11-13T04:05:32.141Z,8.30
2022-11-13T04:07:59.155Z,8.36
2022-11-13T04:10:26.380Z,8.30
2022-11-13T04:12:52.962Z,8.19
2022-11-13T04:15:19.576Z,8.31
2022-11-13T04:17:46.254Z,8.31
2022-11-13T04:20:12.904Z,8.36
2022-11-13T04:22:40.009Z,8.38
2022-11-13T04:25:07.533Z,8.37
2022-11-13T04:27:35.422Z,8.41
2022-11-13T04:30:02.613Z,8.41
2022-11-13T04:32:29.205Z,8.46
2022-11-13T04:34:55.882Z,8.46
2022-11-13T04:37:22.696Z,8.47
2022-11-13T04:39:51.291Z,8.49
2022-11-13T04:42:36.458Z,8.45
2022-11-13T04:45:03.403Z,8.42
2022-11-13T04:47:30.205Z,8.44
2022-11-13T04:49:56.841Z,8.48
2022-11-13T04:52:23.848Z,8.47
2022-11-13T04:54:50.517Z,8.48
2022-11-13T04:57:17.264Z,8.50
2022-11-13T04:59:43.963Z,8.52
2022-11-13T05:02:10.593Z,8.50
2022-11-13T05:04:37.347Z,8.46
2022-11-13T05:07:04.080Z,8.50
2022-11-13T05:09:30.730Z,8.50
2022-11-13T05:11:57.417Z,8.51
2022-11-13T05:14:24.077Z,8.33
2022-11-13T05:16:51.706Z,8.49
2022-11-13T05:19:18.825Z,8.37
2022-11-13T05:21:45.457Z,8.49
2022-11-13T05:24:12.425Z,8.52
2022-11-13T05:26:41.087Z,8.53
2022-11-13T05:29:07.975Z,8.52
2022-11-13T05:31:34.667Z,8.52
2022-11-13T05:34:06.888Z,8.49
2022-11-13T05:36:33.790Z,8.60
2022-11-13T05:39:00.905Z,8.52
2022-11-13T05:41:28.358Z,8.50
2022-11-13T05:43:59.130Z,8.56
2022-11-13T05:46:28.897Z,8.67
2022-11-13T05:48:57.931Z,8.69
2022-11-13T05:51:28.115Z,8.63
2022-11-13T05:53:54.844Z,8.72
2022-11-13T05:56:30.234Z,8.77
2022-11-13T05:58:58.169Z,8.72
2022-11-13T06:01:28.076Z,8.74
2022-11-13T06:03:57.009Z,8.75
2022-11-13T06:06:24.859Z,8.71
2022-11-13T06:08:52.501Z,8.73
2022-11-13T06:11:23.891Z,8.77
2022-11-13T06:13:52.027Z,8.72
2022-11-13T06:16:24.042Z,8.87
2022-11-13T06:18:54.457Z,8.89
2022-11-13T06:21:23.043Z,8.95
2022-11-13T06:23:49.662Z,8.98
2022-11-13T06:26:19.879Z,8.97
2022-11-13T06:28:47.229Z,8.93
2022-11-13T06:31:26.188Z,8.91
2022-11-13T06:33:53.524Z,8.78
2022-11-13T06:36:26.706Z,8.91
2022-11-13T06:38:53.513Z,8.92
2022-11-13T06:41:22.582Z,8.90
2022-11-13T06:43:50.130Z,8.92
2022-11-13T06:46:19.773Z,9.00
2022-11-13T06:48:47.005Z,8.87
2022-11-13T06:51:19.613Z,8.93
2022-11-13T06:53:46.701Z,8.87
2022-11-13T06:56:14.347Z,8.96
2022-11-13T06:58:41.381Z,8.96
2022-11-13T07:01:13.962Z,9.02
2022-11-13T07:03:40.995Z,8.97
2022-11-13T07:06:10.439Z,8.97
2022-11-13T07:08:37.331Z,9.06
2022-11-13T07:11:03.986Z,9.16
2022-11-13T07:13:31.001Z,9.16
2022-11-13T07:16:15.536Z,9.13
2022-11-13T07:18:43.364Z,9.15
2022-11-13T07:21:11.937Z,9.20
2022-11-13T07:23:43.589Z,9.23
2022-11-13T07:26:13.561Z,9.20
2022-11-13T07:28:40.750Z,9.16
2022-11-13T07:31:08.133Z,9.18
2022-11-13T07:33:35.394Z,9.27
2022-11-13T07:36:02.151Z,9.13
2022-11-13T07:38:29.185Z,9.11
2022-11-13T07:40:58.613Z,9.26
2022-11-13T07:43:25.935Z,9.25
2022-11-13T07:45:54.976Z,9.27
2022-11-13T07:48:22.779Z,9.24
2022-11-13T07:50:50.512Z,9.22
2022-11-13T07:53:18.556Z,9.16
2022-11-13T07:55:45.491Z,9.24
2022-11-13T07:58:12.583Z,9.37
2022-11-13T08:00:39.660Z,9.41
2022-11-13T08:03:13.764Z,9.48
2022-11-13T08:05:41.175Z,9.52
2022-11-13T08:08:08.571Z,9.56
2022-11-13T08:10:36.185Z,9.38
2022-11-13T08:13:05.546Z,9.52
2022-11-13T08:15:33.003Z,9.53
2022-11-13T08:18:03.111Z,9.52
2022-11-13T08:20:31.264Z,9.42
2022-11-13T08:23:02.998Z,9.42
2022-11-13T08:25:31.593Z,9.63
2022-11-13T08:27:59.220Z,9.64
2022-11-13T08:30:27.566Z,9.63
2022-11-13T08:32:54.828Z,9.70
2022-11-13T08:35:26.574Z,9.77
2022-11-13T08:38:01.125Z,9.77
2022-11-13T08:40:27.733Z,9.74
2022-11-13T08:43:00.228Z,9.71
2022-11-13T08:45:27.608Z,9.86
2022-11-13T08:47:54.314Z,9.90
2022-11-13T08:50:20.921Z,9.86
2022-11-13T08:52:47.608Z,9.77
2022-11-13T08:55:14.242Z,9.92
2022-11-13T08:57:40.829Z,9.95
2022-11-13T09:00:08.027Z,9.66
2022-11-13T09:02:34.601Z,9.87
2022-11-13T09:05:02.188Z,9.89
2022-11-13T09:07:28.877Z,9.96
2022-11-13T09:09:55.735Z,9.78
2022-11-13T09:12:22.673Z,9.69
2022-11-13T09:14:49.817Z,9.79
2022-11-13T09:17:16.918Z,9.78
2022-11-13T09:19:44.063Z,9.82
2022-11-13T09:22:11.772Z,9.92
2022-11-13T09:24:38.389Z,9.88
2022-11-13T09:27:05.209Z,9.96
2022-11-13T09:29:31.956Z,9.97
2022-11-13T09:31:58.855Z,9.69
2022-11-13T09:34:27.651Z,9.76
2022-11-13T09:36:54.306Z,9.91
2022-11-13T09:39:21.221Z,9.91
2022-11-13T09:42:00.123Z,10.03
2022-11-13T09:44:36.957Z,10.06
2022-11-13T09:47:10.586Z,10.29
2022-11-13T09:49:45.248Z,10.10
2022-11-13T09:52:21.558Z,10.49
2022-11-13T09:54:48.681Z,10.53
2022-11-13T09:57:35.960Z,10.77
2022-11-13T10:00:10.206Z,10.58
2022-11-13T10:02:53.678Z,10.84
2022-11-13T10:05:23.427Z,10.72
2022-11-13T10:08:02.827Z,10.48
2022-11-13T10:10:55.154Z,10.46
2022-11-13T10:13:29.480Z,10.54
2022-11-13T10:16:22.544Z,10.34
2022-11-13T10:18:50.885Z,10.54
2022-11-13T10:22:07.790Z,10.73
2022-11-13T10:24:43.682Z,10.77
2022-11-13T10:27:11.963Z,10.83
2022-11-13T10:29:40.733Z,10.83
2022-11-13T10:32:24.298Z,10.80
2022-11-13T10:34:58.623Z,10.62
2022-11-13T10:37:52.297Z,10.64
2022-11-13T10:40:35.087Z,10.74
2022-11-13T10:43:21.357Z,10.87
2022-11-13T10:45:55.854Z,10.95
2022-11-13T10:48:31.805Z,11.16
2022-11-13T10:51:03.132Z,11.07
2022-11-13T10:53:40.157Z,11.14
2022-11-13T10:56:29.559Z,11.37
2022-11-13T10:59:00.388Z,11.14
2022-11-13T11:01:27.827Z,11.03
2022-11-13T11:03:54.607Z,11.21
2022-11-13T11:06:48.959Z,11.09
2022-11-13T11:09:31.154Z,11.31
2022-11-13T11:12:17.498Z,11.40
2022-11-13T11:14:59.628Z,11.43
2022-11-13T11:17:32.336Z,11.28
2022-11-13T11:20:20.419Z,11.23
2022-11-13T11:22:55.170Z,11.04
2022-11-13T11:25:33.915Z,10.68
2022-11-13T11:28:06.271Z,10.85
2022-11-13T11:30:51.336Z,10.80
2022-11-13T11:33:25.910Z,10.71
2022-11-13T11:36:11.982Z,10.89
2022-11-13T11:38:41.609Z,10.81
2022-11-13T11:41:16.844Z,10.76
2022-11-13T11:43:45.118Z,10.72
2022-11-13T11:46:13.513Z,10.73
2022-11-13T11:48:40.799Z,10.73
2022-11-13T11:51:19.033Z,10.79
2022-11-13T11:54:06.031Z,10.59
2022-11-13T11:56:43.592Z,10.91
2022-11-13T11:59:19.358Z,11.04
2022-11-13T12:05:46.760Z,10.96
2022-11-13T12:08:31.272Z,10.94
2022-11-13T12:11:27.703Z,11.01
2022-11-13T12:14:21.915Z,11.08
2022-11-13T12:17:30.054Z,10.99
2022-11-13T12:20:11.565Z,11.18
2022-11-13T12:22:47.675Z,11.29
2022-11-13T12:26:00.745Z,11.29
2022-11-13T12:28:36.012Z,11.36
2022-11-13T12:31:39.128Z,11.45
2022-11-13T12:34:11.839Z,11.58
2022-11-13T12:36:39.085Z,11.49
2022-11-13T12:39:20.691Z,11.00
2022-11-13T12:41:58.215Z,11.66
2022-11-13T12:44:25.159Z,11.90
2022-11-13T12:46:54.116Z,11.93
2022-11-13T12:49:23.635Z,12.00
2022-11-13T12:52:01.212Z,12.09
2022-11-13T12:54:30.167Z,12.14
2022-11-13T12:57:07.334Z,11.82
2022-11-13T12:59:38.912Z,11.87
2022-11-13T13:02:08.565Z,11.94
2022-11-13T13:04:56.904Z,11.71
2022-11-13T13:07:44.983Z,11.78
2022-11-13T13:10:29.706Z,11.98
2022-11-13T13:13:21.102Z,12.04
2022-11-13T13:15:56.839Z,12.09
2022-11-13T13:18:23.786Z,12.06
2022-11-13T13:21:21.108Z,11.82
2022-11-13T13:23:51.157Z,11.82
2022-11-13T13:26:21.458Z,12.00
2022-11-13T13:28:54.559Z,11.83
2022-11-13T13:31:46.184Z,12.11
2022-11-13T13:34:35.589Z,12.25
2022-11-13T13:37:14.374Z,12.04
2022-11-13T13:40:06.160Z,11.91
2022-11-13T13:42:58.757Z,12.09
2022-11-13T13:45:28.321Z,11.85
2022-11-13T13:47:58.264Z,11.60
2022-11-13T13:50:32.503Z,11.49
2022-11-13T13:53:00.414Z,11.35
2022-11-13T13:55:36.645Z,11.51
2022-11-13T13:58:12.662Z,11.58
2022-11-13T14:00:59.072Z,11.57
2022-11-13T14:03:28.174Z,11.49
2022-11-13T14:06:00.930Z,11.51
2022-11-13T14:08:31.758Z,11.36
2022-11-13T14:10:58.798Z,11.34
2022-11-13T14:13:27.784Z,11.20
2022-11-13T14:16:06.510Z,11.08
2022-11-13T14:18:34.978Z,11.00
2022-11-13T14:21:05.781Z,10.85
2022-11-13T14:23:42.154Z,10.92
2022-11-13T14:26:13.581Z,10.97
2022-11-13T14:29:02.130Z,10.91
2022-11-13T14:31:32.616Z,10.81
2022-11-13T14:34:11.072Z,10.83
2022-11-13T14:36:38.960Z,10.76
2022-11-13T14:39:05.639Z,10.55
2022-11-13T14:41:42.055Z,10.47
2022-11-13T14:44:11.807Z,10.50
2022-11-13T14:46:46.063Z,10.44
2022-11-13T14:49:36.500Z,10.35
2022-11-13T14:52:03.753Z,10.03
2022-11-13T14:55:13.044Z,10.04
2022-11-13T14:57:22.652Z,9.99
2022-11-13T14:59:49.278Z,9.96
2022-11-13T15:02:16.025Z,9.79
2022-11-13T15:04:42.622Z,9.93
2022-11-13T15:07:42.481Z,9.86
2022-11-13T15:10:15.421Z,9.74
2022-11-13T15:12:42.653Z,9.51
2022-11-13T15:15:18.133Z,9.53
2022-11-13T15:17:46.913Z,9.50
2022-11-13T15:20:26.350Z,9.48
2022-11-13T15:22:53.888Z,9.37
2022-11-13T15:25:22.724Z,9.44
2022-11-13T15:27:49.539Z,9.13
2022-11-13T15:30:17.047Z,9.11
2022-11-13T15:32:44.389Z,9.23
2022-11-13T15:35:17.882Z,9.24
2022-11-13T15:37:45.393Z,9.21
2022-11-13T15:40:13.958Z,9.13
2022-11-13T15:42:52.102Z,9.22
2022-11-13T15:45:18.837Z,9.17
2022-11-13T15:47:45.525Z,9.10
2022-11-13T15:50:14.393Z,8.98
2022-11-13T15:52:47.504Z,8.97
2022-11-13T15:55:24.736Z,8.98
2022-11-13T15:57:51.701Z,8.89
2022-11-13T16:00:27.095Z,8.87
2022-11-13T16:02:56.200Z,8.93
2022-11-13T16:05:25.754Z,8.92
2022-11-13T16:07:53.301Z,8.85
2022-11-13T16:10:21.732Z,8.96
2022-11-13T16:12:48.765Z,8.87
2022-11-13T16:15:17.793Z,8.90
2022-11-13T16:17:51.620Z,8.93
2022-11-13T16:20:18.737Z,8.74
2022-11-13T16:22:46.023Z,8.76
2022-11-13T16:25:15.720Z,8.74
2022-11-13T16:27:43.043Z,8.70
2022-11-13T16:30:21.520Z,8.67
2022-11-13T16:32:48.780Z,8.53
2022-11-13T16:35:17.399Z,8.54
2022-11-13T16:37:44.165Z,8.58
2022-11-13T16:40:17.462Z,8.52
2022-11-13T16:42:44.729Z,8.44
2022-11-13T16:45:11.316Z,8.33
2022-11-13T16:47:38.720Z,8.48
2022-11-13T16:50:13.321Z,8.34
2022-11-13T16:52:40.398Z,8.24
2022-11-13T16:55:08.002Z,8.24
2022-11-13T16:57:34.864Z,8.25
2022-11-13T17:00:01.639Z,8.01
2022-11-13T17:02:28.266Z,8.19
2022-11-13T17:04:56.632Z,8.08
2022-11-13T17:07:23.344Z,8.17
2022-11-13T17:10:10.144Z,7.79
2022-11-13T17:12:37.626Z,7.68
2022-11-13T17:15:04.889Z,7.43
2022-11-13T17:17:31.482Z,7.25
2022-11-13T17:19:58.326Z,7.07
2022-11-13T17:22:25.178Z,7.07
2022-11-13T17:24:52.409Z,6.78
2022-11-13T17:27:19.219Z,6.67
2022-11-13T17:29:45.885Z,6.62
2022-11-13T17:32:12.542Z,6.50
2022-11-13T17:34:39.659Z,6.47
2022-11-13T17:37:06.260Z,6.45
2022-11-13T17:39:32.974Z,6.37
2022-11-13T17:42:00.213Z,6.36
2022-11-13T17:44:26.886Z,6.34
2022-11-13T17:46:53.779Z,6.27
2022-11-13T17:49:21.461Z,6.34
2022-11-13T17:51:48.161Z,6.45
2022-11-13T17:54:14.994Z,6.33
2022-11-13T17:56:43.190Z,6.29
2022-11-13T17:59:11.234Z,6.45
2022-11-13T18:01:37.988Z,6.36
2022-11-13T18:04:04.910Z,6.34
2022-11-13T18:06:31.678Z,6.36
2022-11-13T18:08:58.962Z,6.27
2022-11-13T18:11:28.418Z,6.33
2022-11-13T18:13:56.427Z,6.19
2022-11-13T18:16:34.047Z,6.29
2022-11-13T18:19:03.475Z,6.18
2022-11-13T18:21:32.663Z,5.84
2022-11-13T18:24:08.192Z,5.96
2022-11-13T18:26:35.383Z,5.87
2022-11-13T18:29:03.089Z,5.91
2022-11-13T18:31:30.517Z,5.85
2022-11-13T18:34:02.640Z,5.92
2022-11-13T18:36:31.826Z,5.90
2022-11-13T18:39:02.137Z,5.66
2022-11-13T18:41:29.421Z,5.51
2022-11-13T18:43:56.375Z,5.31
2022-11-13T18:46:23.307Z,5.44
2022-11-13T18:48:50.104Z,5.32
2022-11-13T18:51:20.969Z,5.33
2022-11-13T18:53:49.495Z,5.34
2022-11-13T18:56:19.603Z,5.53
2022-11-13T18:58:48.217Z,5.45
2022-11-13T19:01:22.323Z,5.56
2022-11-13T19:04:16.079Z,5.51
2022-11-13T19:06:39.120Z,5.54
2022-11-13T19:09:10.391Z,5.69
2022-11-13T19:11:37.723Z,5.69
2022-11-13T19:14:04.440Z,5.85
2022-11-13T19:16:33.963Z,5.69
2022-11-13T19:19:04.548Z,5.81
2022-11-13T19:21:33.295Z,5.51
2022-11-13T19:24:01.418Z,5.79
2022-11-13T19:26:28.654Z,5.63
2022-11-13T19:28:56.170Z,5.52
2022-11-13T19:31:26.194Z,5.60
2022-11-13T19:34:00.792Z,5.50
2022-11-13T19:36:29.628Z,5.58
2022-11-13T19:38:57.458Z,5.51
2022-11-13T19:41:25.219Z,5.51
2022-11-13T19:43:52.636Z,5.38
2022-11-13T19:46:20.590Z,5.47
2022-11-13T19:48:50.177Z,5.41
2022-11-13T19:51:21.885Z,5.44
2022-11-13T19:53:56.839Z,5.33
2022-11-13T19:56:24.576Z,5.13
2022-11-13T19:58:52.588Z,5.31
2022-11-13T20:01:25.768Z,5.32
2022-11-13T20:03:58.128Z,5.28
2022-11-13T20:06:25.512Z,5.37
2022-11-13T20:08:52.447Z,5.29
2022-11-13T20:11:19.608Z,5.39
2022-11-13T20:13:46.838Z,5.37
2022-11-13T20:16:15.598Z,5.32
2022-11-13T20:18:43.331Z,5.32
2022-11-13T20:21:10.715Z,5.39
2022-11-13T20:23:37.473Z,5.23
2022-11-13T20:26:13.871Z,5.09
2022-11-13T20:28:40.766Z,5.12
2022-11-13T20:31:14.582Z,5.11
2022-11-13T20:33:42.606Z,5.07
2022-11-13T20:36:09.411Z,5.15
2022-11-13T20:38:36.608Z,5.10
2022-11-13T20:41:08.082Z,5.13
2022-11-13T20:43:34.800Z,4.83
2022-11-13T20:46:21.107Z,4.96
2022-11-13T20:48:48.414Z,4.92
2022-11-13T20:51:19.418Z,4.94
2022-11-13T20:53:46.793Z,4.82
2022-11-13T20:56:13.796Z,4.72
2022-11-13T20:58:41.060Z,4.70
2022-11-13T21:01:13.051Z,4.75
2022-11-13T21:03:41.966Z,4.42
2022-11-13T21:06:15.566Z,4.53
2022-11-13T21:08:43.444Z,4.50
2022-11-13T21:11:14.512Z,4.65
2022-11-13T21:13:41.131Z,4.58
2022-11-13T21:16:09.632Z,4.57
2022-11-13T21:18:36.475Z,4.55
2022-11-13T21:21:08.523Z,4.60
2022-11-13T21:23:35.537Z,4.55
2022-11-13T21:26:03.725Z,4.32
2022-11-13T21:28:33.966Z,4.24
2022-11-13T21:31:06.742Z,4.28
2022-11-13T21:33:38.492Z,4.37
2022-11-13T21:36:13.899Z,4.30
2022-11-13T21:38:42.682Z,4.18
2022-11-13T21:41:27.205Z,4.30
2022-11-13T21:43:57.271Z,4.28
2022-11-13T21:46:27.242Z,4.21
2022-11-13T21:49:10.740Z,4.28
2022-11-13T21:51:38.618Z,4.22
2022-11-13T21:54:05.821Z,4.16
2022-11-13T21:56:34.395Z,4.24
2022-11-13T21:59:01.380Z,4.11
2022-11-13T22:01:32.406Z,3.95
2022-11-13T22:04:03.228Z,3.84
2022-11-13T22:06:32.183Z,3.99
2022-11-13T22:09:04.201Z,4.03
2022-11-13T22:11:36.429Z,3.83
2022-11-13T22:14:04.204Z,3.77
2022-11-13T22:16:33.076Z,3.61
2022-11-13T22:19:03.492Z,3.73
2022-11-13T22:21:31.544Z,3.64
2022-11-13T22:23:59.328Z,3.67
2022-11-13T22:26:28.020Z,3.76
2022-11-13T22:28:55.756Z,3.67
2022-11-13T22:31:25.681Z,3.63
2022-11-13T22:33:55.106Z,3.68
2022-11-13T22:36:26.332Z,3.69
2022-11-13T22:38:53.689Z,3.58
2022-11-13T22:41:23.964Z,3.68
2022-11-13T22:43:53.597Z,3.67
2022-11-13T22:46:25.205Z,3.61
2022-11-13T22:48:53.108Z,3.72
2022-11-13T22:51:26.486Z,3.67
2022-11-13T22:53:55.665Z,3.57
2022-11-13T22:56:24.529Z,3.60
2022-11-13T22:58:54.075Z,3.46
2022-11-13T23:01:23.604Z,3.54
2022-11-13T23:03:51.933Z,3.61
2022-11-13T23:06:29.781Z,3.49
2022-11-13T23:08:56.783Z,3.69
2022-11-13T23:11:27.713Z,3.72
2022-11-13T23:13:56.723Z,3.68
2022-11-13T23:16:25.517Z,3.61
2022-11-13T23:18:54.559Z,3.68
2022-11-13T23:21:21.944Z,3.76
2022-11-13T23:23:48.689Z,3.70
2022-11-13T23:26:16.628Z,3.65
2022-11-13T23:28:44.216Z,3.65
2022-11-13T23:31:11.650Z,3.63
2022-11-13T23:33:38.863Z,3.51
2022-11-13T23:36:07.301Z,3.31
2022-11-13T23:38:34.132Z,3.28
2022-11-13T23:41:01.772Z,3.55
2022-11-13T23:43:54.244Z,3.57
2022-11-13T23:46:16.513Z,3.35
2022-11-13T23:48:43.253Z,3.21
2022-11-13T23:51:09.895Z,3.17
2022-11-13T23:53:36.554Z,3.14
2022-11-13T23:56:03.488Z,2.77
2022-11-13T23:58:32.268Z,2.99
